sensor_id;sensor_type;location;lat;lon;timestamp;P1;durP1;ratioP1;P2;durP2;ratioP2
20855;SDS011;63058;49.424;8.420;2022-10-19T00:01:07;7.70;;;6.35;;
20855;SDS011;63058;49.424;8.420;2022-10-19T00:03:45;8.75;;;6.32;;
20855;SDS011;63058;49.424;8.420;2022-10-19T00:06:23;8.05;;;6.45;;
20855;SDS011;63058;49.424;8.420;2022-10-19T00:08:56;8.93;;;6.78;;
20855;SDS011;63058;49.424;8.420;2022-10-19T00:11:24;10.65;;;7.43;;
20855;SDS011;63058;49.424;8.420;2022-10-19T00:13:51;11.35;;;7.40;;
20855;SDS011;63058;49.424;8.420;2022-10-19T00:16:19;9.40;;;6.57;;
20855;SDS011;63058;49.424;8.420;2022-10-19T00:18:45;8.23;;;7.30;;
20855;SDS011;63058;49.424;8.420;2022-10-19T00:21:12;11.60;;;7.10;;
20855;SDS011;63058;49.424;8.420;2022-10-19T00:23:41;10.23;;;7.60;;
20855;SDS011;63058;49.424;8.420;2022-10-19T00:26:08;6.30;;;5.43;;
20855;SDS011;63058;49.424;8.420;2022-10-19T00:28:34;10.88;;;6.50;;
20855;SDS011;63058;49.424;8.420;2022-10-19T00:31:01;9.32;;;7.22;;
20855;SDS011;63058;49.424;8.420;2022-10-19T00:33:32;9.85;;;7.78;;
20855;SDS011;63058;49.424;8.420;2022-10-19T00:35:58;9.95;;;6.60;;
20855;SDS011;63058;49.424;8.420;2022-10-19T00:38:25;10.23;;;7.72;;
20855;SDS011;63058;49.424;8.420;2022-10-19T00:40:51;11.70;;;8.88;;
20855;SDS011;63058;49.424;8.420;2022-10-19T00:43:18;11.57;;;9.00;;
20855;SDS011;63058;49.424;8.420;2022-10-19T00:45:48;11.15;;;6.65;;
20855;SDS011;63058;49.424;8.420;2022-10-19T00:48:14;8.35;;;6.38;;
20855;SDS011;63058;49.424;8.420;2022-10-19T00:50:45;8.25;;;7.22;;
20855;SDS011;63058;49.424;8.420;2022-10-19T00:53:12;9.07;;;6.18;;
20855;SDS011;63058;49.424;8.420;2022-10-19T00:55:38;8.15;;;6.90;;
20855;SDS011;63058;49.424;8.420;2022-10-19T00:58:05;8.88;;;6.65;;
20855;SDS011;63058;49.424;8.420;2022-10-19T01:00:33;10.73;;;7.82;;
20855;SDS011;63058;49.424;8.420;2022-10-19T01:03:00;12.20;;;8.13;;
20855;SDS011;63058;49.424;8.420;2022-10-19T01:05:26;12.52;;;7.82;;
20855;SDS011;63058;49.424;8.420;2022-10-19T01:07:54;10.27;;;8.05;;
20855;SDS011;63058;49.424;8.420;2022-10-19T01:10:22;11.15;;;8.23;;
20855;SDS011;63058;49.424;8.420;2022-10-19T01:13:00;12.93;;;8.70;;
20855;SDS011;63058;49.424;8.420;2022-10-19T01:18:27;12.65;;;8.55;;
20855;SDS011;63058;49.424;8.420;2022-10-19T01:21:29;11.13;;;7.82;;
20855;SDS011;63058;49.424;8.420;2022-10-19T01:27:19;13.20;;;8.13;;
20855;SDS011;63058;49.424;8.420;2022-10-19T01:30:26;11.45;;;7.60;;
20855;SDS011;63058;49.424;8.420;2022-10-19T01:32:58;11.07;;;8.23;;
20855;SDS011;63058;49.424;8.420;2022-10-19T01:38:36;11.10;;;7.45;;
20855;SDS011;63058;49.424;8.420;2022-10-19T01:41:32;9.48;;;6.65;;
20855;SDS011;63058;49.424;8.420;2022-10-19T01:44:18;11.00;;;7.45;;
20855;SDS011;63058;49.424;8.420;2022-10-19T01:46:53;10.48;;;7.20;;
20855;SDS011;63058;49.424;8.420;2022-10-19T01:49:56;8.35;;;6.40;;
20855;SDS011;63058;49.424;8.420;2022-10-19T01:52:17;9.63;;;7.20;;
20855;SDS011;63058;49.424;8.420;2022-10-19T01:54:48;8.70;;;7.32;;
20855;SDS011;63058;49.424;8.420;2022-10-19T01:57:19;10.18;;;7.53;;
20855;SDS011;63058;49.424;8.420;2022-10-19T01:59:52;11.18;;;7.50;;
20855;SDS011;63058;49.424;8.420;2022-10-19T02:02:19;10.20;;;7.97;;
20855;SDS011;63058;49.424;8.420;2022-10-19T02:04:48;10.57;;;8.20;;
20855;SDS011;63058;49.424;8.420;2022-10-19T02:07:15;11.52;;;7.88;;
20855;SDS011;63058;49.424;8.420;2022-10-19T02:09:42;13.70;;;10.10;;
20855;SDS011;63058;49.424;8.420;2022-10-19T02:12:08;16.83;;;9.75;;
20855;SDS011;63058;49.424;8.420;2022-10-19T02:14:38;12.02;;;8.13;;
20855;SDS011;63058;49.424;8.420;2022-10-19T02:17:09;11.50;;;8.23;;
20855;SDS011;63058;49.424;8.420;2022-10-19T02:19:43;9.40;;;7.63;;
20855;SDS011;63058;49.424;8.420;2022-10-19T02:22:10;11.02;;;8.10;;
20855;SDS011;63058;49.424;8.420;2022-10-19T02:24:37;15.15;;;9.52;;
20855;SDS011;63058;49.424;8.420;2022-10-19T02:27:03;14.55;;;8.73;;
20855;SDS011;63058;49.424;8.420;2022-10-19T02:29:31;13.07;;;7.32;;
20855;SDS011;63058;49.424;8.420;2022-10-19T02:31:57;10.50;;;6.93;;
20855;SDS011;63058;49.424;8.420;2022-10-19T02:34:26;12.40;;;7.35;;
20855;SDS011;63058;49.424;8.420;2022-10-19T02:39:53;13.13;;;8.05;;
20855;SDS011;63058;49.424;8.420;2022-10-19T02:42:21;9.60;;;7.28;;
20855;SDS011;63058;49.424;8.420;2022-10-19T02:45:25;16.25;;;8.35;;
20855;SDS011;63058;49.424;8.420;2022-10-19T02:48:06;11.38;;;7.72;;
20855;SDS011;63058;49.424;8.420;2022-10-19T02:50:57;13.82;;;8.70;;
20855;SDS011;63058;49.424;8.420;2022-10-19T02:54:13;14.48;;;9.70;;
20855;SDS011;63058;49.424;8.420;2022-10-19T02:56:45;28.73;;;9.82;;
20855;SDS011;63058;49.424;8.420;2022-10-19T02:59:13;16.42;;;8.68;;
20855;SDS011;63058;49.424;8.420;2022-10-19T03:01:38;17.42;;;9.43;;
20855;SDS011;63058;49.424;8.420;2022-10-19T03:04:05;25.73;;;9.73;;
20855;SDS011;63058;49.424;8.420;2022-10-19T03:06:31;22.77;;;9.30;;
20855;SDS011;63058;49.424;8.420;2022-10-19T03:08:58;18.83;;;9.27;;
20855;SDS011;63058;49.424;8.420;2022-10-19T03:11:24;26.40;;;9.85;;
20855;SDS011;63058;49.424;8.420;2022-10-19T03:13:51;21.40;;;9.52;;
20855;SDS011;63058;49.424;8.420;2022-10-19T03:16:18;12.65;;;7.45;;
20855;SDS011;63058;49.424;8.420;2022-10-19T03:18:43;14.43;;;8.73;;
20855;SDS011;63058;49.424;8.420;2022-10-19T03:21:11;25.42;;;10.05;;
20855;SDS011;63058;49.424;8.420;2022-10-19T03:23:49;18.27;;;9.80;;
20855;SDS011;63058;49.424;8.420;2022-10-19T03:26:15;21.77;;;10.50;;
20855;SDS011;63058;49.424;8.420;2022-10-19T03:28:41;26.33;;;10.55;;
20855;SDS011;63058;49.424;8.420;2022-10-19T03:31:08;20.77;;;11.13;;
20855;SDS011;63058;49.424;8.420;2022-10-19T03:33:34;22.90;;;10.55;;
20855;SDS011;63058;49.424;8.420;2022-10-19T03:38:38;20.92;;;10.50;;
20855;SDS011;63058;49.424;8.420;2022-10-19T03:41:05;29.92;;;10.52;;
20855;SDS011;63058;49.424;8.420;2022-10-19T03:43:31;36.05;;;10.07;;
20855;SDS011;63058;49.424;8.420;2022-10-19T03:45:56;37.42;;;10.38;;
20855;SDS011;63058;49.424;8.420;2022-10-19T03:48:22;29.20;;;10.50;;
20855;SDS011;63058;49.424;8.420;2022-10-19T03:50:47;16.27;;;9.68;;
20855;SDS011;63058;49.424;8.420;2022-10-19T03:53:21;18.38;;;9.52;;
20855;SDS011;63058;49.424;8.420;2022-10-19T03:55:51;22.98;;;8.98;;
20855;SDS011;63058;49.424;8.420;2022-10-19T03:58:32;14.60;;;9.13;;
20855;SDS011;63058;49.424;8.420;2022-10-19T04:00:59;13.40;;;8.10;;
20855;SDS011;63058;49.424;8.420;2022-10-19T04:03:25;18.48;;;8.45;;
20855;SDS011;63058;49.424;8.420;2022-10-19T04:05:51;18.67;;;8.68;;
20855;SDS011;63058;49.424;8.420;2022-10-19T04:08:18;21.58;;;9.25;;
20855;SDS011;63058;49.424;8.420;2022-10-19T04:11:04;17.25;;;9.73;;
20855;SDS011;63058;49.424;8.420;2022-10-19T04:13:42;15.40;;;9.48;;
20855;SDS011;63058;49.424;8.420;2022-10-19T04:16:09;23.73;;;10.00;;
20855;SDS011;63058;49.424;8.420;2022-10-19T04:18:37;14.45;;;8.93;;
20855;SDS011;63058;49.424;8.420;2022-10-19T04:21:03;14.80;;;9.10;;
20855;SDS011;63058;49.424;8.420;2022-10-19T04:23:31;13.98;;;8.65;;
20855;SDS011;63058;49.424;8.420;2022-10-19T04:25:59;14.70;;;9.18;;
20855;SDS011;63058;49.424;8.420;2022-10-19T04:28:26;13.60;;;9.13;;
20855;SDS011;63058;49.424;8.420;2022-10-19T04:30:53;13.38;;;8.70;;
20855;SDS011;63058;49.424;8.420;2022-10-19T04:33:18;15.73;;;10.10;;
20855;SDS011;63058;49.424;8.420;2022-10-19T04:35:46;14.13;;;9.48;;
20855;SDS011;63058;49.424;8.420;2022-10-19T04:38:12;15.20;;;9.35;;
20855;SDS011;63058;49.424;8.420;2022-10-19T04:40:37;20.17;;;11.13;;
20855;SDS011;63058;49.424;8.420;2022-10-19T04:43:03;18.25;;;9.93;;
20855;SDS011;63058;49.424;8.420;2022-10-19T04:45:29;18.23;;;9.85;;
20855;SDS011;63058;49.424;8.420;2022-10-19T04:47:56;16.80;;;9.43;;
20855;SDS011;63058;49.424;8.420;2022-10-19T04:50:22;18.70;;;11.90;;
20855;SDS011;63058;49.424;8.420;2022-10-19T04:52:49;17.85;;;10.65;;
20855;SDS011;63058;49.424;8.420;2022-10-19T04:55:14;19.73;;;11.27;;
20855;SDS011;63058;49.424;8.420;2022-10-19T04:57:40;17.27;;;10.27;;
20855;SDS011;63058;49.424;8.420;2022-10-19T05:00:06;18.52;;;11.07;;
20855;SDS011;63058;49.424;8.420;2022-10-19T05:02:33;19.83;;;10.25;;
20855;SDS011;63058;49.424;8.420;2022-10-19T05:04:59;19.30;;;11.45;;
20855;SDS011;63058;49.424;8.420;2022-10-19T05:07:25;17.38;;;10.32;;
20855;SDS011;63058;49.424;8.420;2022-10-19T05:09:50;19.55;;;10.55;;
20855;SDS011;63058;49.424;8.420;2022-10-19T05:12:16;20.58;;;11.77;;
20855;SDS011;63058;49.424;8.420;2022-10-19T05:14:41;19.73;;;11.45;;
20855;SDS011;63058;49.424;8.420;2022-10-19T05:17:07;18.83;;;10.90;;
20855;SDS011;63058;49.424;8.420;2022-10-19T05:19:32;13.77;;;9.57;;
20855;SDS011;63058;49.424;8.420;2022-10-19T05:21:58;17.92;;;10.93;;
20855;SDS011;63058;49.424;8.420;2022-10-19T05:24:24;17.15;;;10.90;;
20855;SDS011;63058;49.424;8.420;2022-10-19T05:26:49;16.90;;;10.68;;
20855;SDS011;63058;49.424;8.420;2022-10-19T05:29:15;17.05;;;10.68;;
20855;SDS011;63058;49.424;8.420;2022-10-19T05:31:40;19.38;;;12.00;;
20855;SDS011;63058;49.424;8.420;2022-10-19T05:34:06;19.92;;;11.88;;
20855;SDS011;63058;49.424;8.420;2022-10-19T05:36:33;18.67;;;12.55;;
20855;SDS011;63058;49.424;8.420;2022-10-19T05:39:02;23.10;;;12.23;;
20855;SDS011;63058;49.424;8.420;2022-10-19T05:41:34;18.83;;;12.23;;
20855;SDS011;63058;49.424;8.420;2022-10-19T05:44:00;18.70;;;11.68;;
20855;SDS011;63058;49.424;8.420;2022-10-19T05:46:28;21.13;;;12.48;;
20855;SDS011;63058;49.424;8.420;2022-10-19T05:48:55;24.27;;;12.32;;
20855;SDS011;63058;49.424;8.420;2022-10-19T05:51:22;20.02;;;11.18;;
20855;SDS011;63058;49.424;8.420;2022-10-19T05:53:49;16.73;;;10.80;;
20855;SDS011;63058;49.424;8.420;2022-10-19T05:56:19;23.17;;;14.00;;
20855;SDS011;63058;49.424;8.420;2022-10-19T05:58:46;16.65;;;10.32;;
20855;SDS011;63058;49.424;8.420;2022-10-19T06:01:13;17.90;;;11.90;;
20855;SDS011;63058;49.424;8.420;2022-10-19T06:03:39;18.30;;;11.10;;
20855;SDS011;63058;49.424;8.420;2022-10-19T06:06:05;17.00;;;9.43;;
20855;SDS011;63058;49.424;8.420;2022-10-19T06:08:32;13.43;;;8.65;;
20855;SDS011;63058;49.424;8.420;2022-10-19T06:13:38;14.70;;;10.05;;
20855;SDS011;63058;49.424;8.420;2022-10-19T06:16:06;14.63;;;9.52;;
20855;SDS011;63058;49.424;8.420;2022-10-19T06:18:32;13.40;;;9.75;;
20855;SDS011;63058;49.424;8.420;2022-10-19T06:21:17;13.73;;;9.48;;
20855;SDS011;63058;49.424;8.420;2022-10-19T06:23:48;15.13;;;9.85;;
20855;SDS011;63058;49.424;8.420;2022-10-19T06:26:19;12.05;;;8.98;;
20855;SDS011;63058;49.424;8.420;2022-10-19T06:28:45;14.50;;;10.05;;
20855;SDS011;63058;49.424;8.420;2022-10-19T06:31:12;12.68;;;8.98;;
20855;SDS011;63058;49.424;8.420;2022-10-19T06:33:38;14.48;;;9.25;;
20855;SDS011;63058;49.424;8.420;2022-10-19T06:36:12;17.13;;;10.73;;
20855;SDS011;63058;49.424;8.420;2022-10-19T06:38:41;17.20;;;10.18;;
20855;SDS011;63058;49.424;8.420;2022-10-19T06:41:07;15.82;;;10.35;;
20855;SDS011;63058;49.424;8.420;2022-10-19T06:43:34;13.55;;;9.25;;
20855;SDS011;63058;49.424;8.420;2022-10-19T06:46:07;16.70;;;11.85;;
20855;SDS011;63058;49.424;8.420;2022-10-19T06:48:35;17.45;;;10.93;;
20855;SDS011;63058;49.424;8.420;2022-10-19T06:51:02;17.70;;;12.27;;
20855;SDS011;63058;49.424;8.420;2022-10-19T06:53:29;16.63;;;11.35;;
20855;SDS011;63058;49.424;8.420;2022-10-19T06:55:58;21.55;;;13.68;;
20855;SDS011;63058;49.424;8.420;2022-10-19T06:58:24;20.90;;;14.15;;
20855;SDS011;63058;49.424;8.420;2022-10-19T07:00:57;18.30;;;12.30;;
20855;SDS011;63058;49.424;8.420;2022-10-19T07:03:24;20.63;;;12.23;;
20855;SDS011;63058;49.424;8.420;2022-10-19T07:05:52;21.80;;;13.32;;
20855;SDS011;63058;49.424;8.420;2022-10-19T07:08:22;25.38;;;14.43;;
20855;SDS011;63058;49.424;8.420;2022-10-19T07:10:52;25.40;;;17.02;;
20855;SDS011;63058;49.424;8.420;2022-10-19T07:13:24;21.60;;;14.23;;
20855;SDS011;63058;49.424;8.420;2022-10-19T07:16:05;20.98;;;13.18;;
20855;SDS011;63058;49.424;8.420;2022-10-19T07:18:33;21.85;;;14.05;;
20855;SDS011;63058;49.424;8.420;2022-10-19T07:21:01;21.33;;;13.63;;
20855;SDS011;63058;49.424;8.420;2022-10-19T07:23:29;20.02;;;13.07;;
20855;SDS011;63058;49.424;8.420;2022-10-19T07:25:56;22.38;;;14.52;;
20855;SDS011;63058;49.424;8.420;2022-10-19T07:28:26;22.20;;;14.38;;
20855;SDS011;63058;49.424;8.420;2022-10-19T07:30:53;21.40;;;13.82;;
20855;SDS011;63058;49.424;8.420;2022-10-19T07:33:22;18.85;;;12.05;;
20855;SDS011;63058;49.424;8.420;2022-10-19T07:35:47;19.08;;;12.68;;
20855;SDS011;63058;49.424;8.420;2022-10-19T07:38:13;17.50;;;11.93;;
20855;SDS011;63058;49.424;8.420;2022-10-19T07:40:39;17.77;;;12.50;;
20855;SDS011;63058;49.424;8.420;2022-10-19T07:43:04;16.00;;;11.27;;
20855;SDS011;63058;49.424;8.420;2022-10-19T07:45:31;14.75;;;10.45;;
20855;SDS011;63058;49.424;8.420;2022-10-19T07:47:58;14.82;;;10.77;;
20855;SDS011;63058;49.424;8.420;2022-10-19T07:50:24;15.27;;;10.65;;
20855;SDS011;63058;49.424;8.420;2022-10-19T07:52:53;13.82;;;10.50;;
20855;SDS011;63058;49.424;8.420;2022-10-19T07:55:19;13.82;;;10.27;;
20855;SDS011;63058;49.424;8.420;2022-10-19T07:57:46;13.23;;;9.98;;
20855;SDS011;63058;49.424;8.420;2022-10-19T08:00:13;14.57;;;10.68;;
20855;SDS011;63058;49.424;8.420;2022-10-19T08:02:40;12.30;;;10.90;;
20855;SDS011;63058;49.424;8.420;2022-10-19T08:05:06;13.32;;;11.13;;
20855;SDS011;63058;49.424;8.420;2022-10-19T08:07:32;14.25;;;10.82;;
20855;SDS011;63058;49.424;8.420;2022-10-19T08:09:58;15.00;;;11.43;;
20855;SDS011;63058;49.424;8.420;2022-10-19T08:12:24;15.55;;;12.15;;
20855;SDS011;63058;49.424;8.420;2022-10-19T08:14:49;22.35;;;12.77;;
20855;SDS011;63058;49.424;8.420;2022-10-19T08:17:15;14.15;;;12.15;;
20855;SDS011;63058;49.424;8.420;2022-10-19T08:19:41;13.60;;;11.27;;
20855;SDS011;63058;49.424;8.420;2022-10-19T08:22:08;12.15;;;9.73;;
20855;SDS011;63058;49.424;8.420;2022-10-19T08:24:34;13.63;;;10.15;;
20855;SDS011;63058;49.424;8.420;2022-10-19T08:27:00;13.52;;;9.55;;
20855;SDS011;63058;49.424;8.420;2022-10-19T08:29:26;11.63;;;9.45;;
20855;SDS011;63058;49.424;8.420;2022-10-19T08:31:52;10.73;;;8.98;;
20855;SDS011;63058;49.424;8.420;2022-10-19T08:34:18;11.75;;;9.07;;
20855;SDS011;63058;49.424;8.420;2022-10-19T08:36:45;11.68;;;9.02;;
20855;SDS011;63058;49.424;8.420;2022-10-19T08:39:11;11.55;;;9.07;;
20855;SDS011;63058;49.424;8.420;2022-10-19T08:49:06;10.30;;;8.70;;
20855;SDS011;63058;49.424;8.420;2022-10-19T08:51:36;11.10;;;9.45;;
20855;SDS011;63058;49.424;8.420;2022-10-19T08:54:05;11.55;;;9.18;;
20855;SDS011;63058;49.424;8.420;2022-10-19T08:56:43;12.93;;;10.43;;
20855;SDS011;63058;49.424;8.420;2022-10-19T08:59:20;12.32;;;10.32;;
20855;SDS011;63058;49.424;8.420;2022-10-19T09:02:02;15.00;;;11.27;;
20855;SDS011;63058;49.424;8.420;2022-10-19T09:09:53;13.27;;;10.85;;
20855;SDS011;63058;49.424;8.420;2022-10-19T09:15:28;12.93;;;10.80;;
20855;SDS011;63058;49.424;8.420;2022-10-19T09:18:02;12.27;;;10.38;;
20855;SDS011;63058;49.424;8.420;2022-10-19T09:20:38;15.20;;;11.68;;
20855;SDS011;63058;49.424;8.420;2022-10-19T09:26:13;11.07;;;9.82;;
20855;SDS011;63058;49.424;8.420;2022-10-19T09:31:32;12.45;;;10.25;;
20855;SDS011;63058;49.424;8.420;2022-10-19T09:34:47;14.73;;;10.60;;
20855;SDS011;63058;49.424;8.420;2022-10-19T09:36:59;10.85;;;9.20;;
20855;SDS011;63058;49.424;8.420;2022-10-19T09:39:25;10.68;;;9.55;;
20855;SDS011;63058;49.424;8.420;2022-10-19T09:41:53;12.93;;;11.40;;
20855;SDS011;63058;49.424;8.420;2022-10-19T09:44:20;11.75;;;10.38;;
20855;SDS011;63058;49.424;8.420;2022-10-19T09:47:01;12.25;;;10.65;;
20855;SDS011;63058;49.424;8.420;2022-10-19T09:49:49;11.85;;;10.20;;
20855;SDS011;63058;49.424;8.420;2022-10-19T09:52:31;11.55;;;9.38;;
20855;SDS011;63058;49.424;8.420;2022-10-19T09:57:42;10.00;;;7.93;;
20855;SDS011;63058;49.424;8.420;2022-10-19T10:02:48;9.38;;;7.75;;
20855;SDS011;63058;49.424;8.420;2022-10-19T10:05:16;13.48;;;7.75;;
20855;SDS011;63058;49.424;8.420;2022-10-19T10:07:42;10.55;;;7.80;;
20855;SDS011;63058;49.424;8.420;2022-10-19T10:10:10;8.88;;;7.88;;
20855;SDS011;63058;49.424;8.420;2022-10-19T10:12:44;7.72;;;6.93;;
20855;SDS011;63058;49.424;8.420;2022-10-19T10:18:10;7.10;;;6.40;;
20855;SDS011;63058;49.424;8.420;2022-10-19T10:20:41;7.35;;;6.32;;
20855;SDS011;63058;49.424;8.420;2022-10-19T10:23:42;7.35;;;6.00;;
20855;SDS011;63058;49.424;8.420;2022-10-19T10:26:22;9.32;;;6.28;;
20855;SDS011;63058;49.424;8.420;2022-10-19T10:28:50;6.18;;;5.57;;
20855;SDS011;63058;49.424;8.420;2022-10-19T10:31:21;5.63;;;5.00;;
20855;SDS011;63058;49.424;8.420;2022-10-19T10:33:54;4.68;;;3.60;;
20855;SDS011;63058;49.424;8.420;2022-10-19T10:36:28;6.25;;;5.40;;
20855;SDS011;63058;49.424;8.420;2022-10-19T10:39:04;6.38;;;5.38;;
20855;SDS011;63058;49.424;8.420;2022-10-19T10:41:38;5.38;;;4.85;;
20855;SDS011;63058;49.424;8.420;2022-10-19T10:44:07;7.53;;;5.07;;
20855;SDS011;63058;49.424;8.420;2022-10-19T10:46:54;4.63;;;3.97;;
20855;SDS011;63058;49.424;8.420;2022-10-19T10:49:27;4.57;;;4.15;;
20855;SDS011;63058;49.424;8.420;2022-10-19T10:52:13;4.68;;;4.25;;
20855;SDS011;63058;49.424;8.420;2022-10-19T10:54:55;4.30;;;3.90;;
20855;SDS011;63058;49.424;8.420;2022-10-19T10:57:31;6.28;;;4.30;;
20855;SDS011;63058;49.424;8.420;2022-10-19T11:00:05;5.95;;;4.00;;
20855;SDS011;63058;49.424;8.420;2022-10-19T11:02:55;5.65;;;4.32;;
20855;SDS011;63058;49.424;8.420;2022-10-19T11:05:39;5.32;;;4.38;;
20855;SDS011;63058;49.424;8.420;2022-10-19T11:10:44;4.22;;;3.85;;
20855;SDS011;63058;49.424;8.420;2022-10-19T11:13:37;5.07;;;4.20;;
20855;SDS011;63058;49.424;8.420;2022-10-19T11:16:15;4.38;;;3.97;;
20855;SDS011;63058;49.424;8.420;2022-10-19T11:18:44;5.18;;;4.10;;
20855;SDS011;63058;49.424;8.420;2022-10-19T11:21:19;4.95;;;4.18;;
20855;SDS011;63058;49.424;8.420;2022-10-19T11:31:52;2.88;;;2.65;;
20855;SDS011;63058;49.424;8.420;2022-10-19T11:37:32;4.15;;;3.03;;
20855;SDS011;63058;49.424;8.420;2022-10-19T11:43:00;2.60;;;2.40;;
20855;SDS011;63058;49.424;8.420;2022-10-19T11:51:38;2.47;;;2.28;;
20855;SDS011;63058;49.424;8.420;2022-10-19T11:56:50;2.20;;;2.00;;
20855;SDS011;63058;49.424;8.420;2022-10-19T12:04:45;2.35;;;2.15;;
20855;SDS011;63058;49.424;8.420;2022-10-19T12:07:47;2.95;;;1.85;;
20855;SDS011;63058;49.424;8.420;2022-10-19T12:13:21;3.33;;;1.65;;
20855;SDS011;63058;49.424;8.420;2022-10-19T12:15:51;1.98;;;1.73;;
20855;SDS011;63058;49.424;8.420;2022-10-19T12:21:02;2.42;;;1.70;;
20855;SDS011;63058;49.424;8.420;2022-10-19T12:23:34;2.00;;;1.55;;
20855;SDS011;63058;49.424;8.420;2022-10-19T12:26:03;1.67;;;1.58;;
20855;SDS011;63058;49.424;8.420;2022-10-19T12:28:34;4.03;;;1.45;;
20855;SDS011;63058;49.424;8.420;2022-10-19T12:31:03;1.75;;;1.48;;
20855;SDS011;63058;49.424;8.420;2022-10-19T12:38:50;1.30;;;1.20;;
20855;SDS011;63058;49.424;8.420;2022-10-19T12:41:45;1.88;;;1.58;;
20855;SDS011;63058;49.424;8.420;2022-10-19T12:47:19;3.65;;;1.08;;
20855;SDS011;63058;49.424;8.420;2022-10-19T12:49:53;1.77;;;1.25;;
20855;SDS011;63058;49.424;8.420;2022-10-19T12:55:23;1.65;;;1.40;;
20855;SDS011;63058;49.424;8.420;2022-10-19T12:58:01;1.40;;;1.30;;
20855;SDS011;63058;49.424;8.420;2022-10-19T13:00:43;1.40;;;1.30;;
20855;SDS011;63058;49.424;8.420;2022-10-19T13:03:23;1.50;;;1.20;;
20855;SDS011;63058;49.424;8.420;2022-10-19T13:06:16;1.65;;;1.25;;
20855;SDS011;63058;49.424;8.420;2022-10-19T13:08:55;1.48;;;1.02;;
20855;SDS011;63058;49.424;8.420;2022-10-19T13:11:23;1.73;;;1.40;;
20855;SDS011;63058;49.424;8.420;2022-10-19T13:21:47;1.55;;;1.45;;
20855;SDS011;63058;49.424;8.420;2022-10-19T13:43:56;3.17;;;0.90;;
20855;SDS011;63058;49.424;8.420;2022-10-19T13:57:04;1.08;;;0.98;;
20855;SDS011;63058;49.424;8.420;2022-10-19T14:05:42;0.80;;;0.80;;
20855;SDS011;63058;49.424;8.420;2022-10-19T14:11:25;1.58;;;0.70;;
20855;SDS011;63058;49.424;8.420;2022-10-19T14:20:00;0.93;;;0.80;;
20855;SDS011;63058;49.424;8.420;2022-10-19T14:27:47;1.90;;;0.80;;
20855;SDS011;63058;49.424;8.420;2022-10-19T14:30:21;1.08;;;0.80;;
20855;SDS011;63058;49.424;8.420;2022-10-19T14:32:51;5.18;;;0.75;;
20855;SDS011;63058;49.424;8.420;2022-10-19T14:35:23;1.48;;;0.80;;
20855;SDS011;63058;49.424;8.420;2022-10-19T14:37:52;0.70;;;0.70;;
20855;SDS011;63058;49.424;8.420;2022-10-19T14:40:30;1.00;;;0.90;;
20855;SDS011;63058;49.424;8.420;2022-10-19T14:42:58;1.13;;;0.73;;
20855;SDS011;63058;49.424;8.420;2022-10-19T14:45:27;1.88;;;0.90;;
20855;SDS011;63058;49.424;8.420;2022-10-19T14:50:26;1.00;;;0.80;;
20855;SDS011;63058;49.424;8.420;2022-10-19T14:52:54;1.13;;;0.93;;
20855;SDS011;63058;49.424;8.420;2022-10-19T14:55:45;1.30;;;1.00;;
20855;SDS011;63058;49.424;8.420;2022-10-19T14:58:15;1.20;;;0.90;;
20855;SDS011;63058;49.424;8.420;2022-10-19T15:00:44;1.10;;;1.00;;
20855;SDS011;63058;49.424;8.420;2022-10-19T15:03:13;1.08;;;0.75;;
20855;SDS011;63058;49.424;8.420;2022-10-19T15:06:00;1.77;;;1.05;;
20855;SDS011;63058;49.424;8.420;2022-10-19T15:08:36;1.38;;;1.27;;
20855;SDS011;63058;49.424;8.420;2022-10-19T15:11:06;0.90;;;0.90;;
20855;SDS011;63058;49.424;8.420;2022-10-19T15:13:45;1.10;;;0.93;;
20855;SDS011;63058;49.424;8.420;2022-10-19T15:16:27;1.10;;;1.00;;
20855;SDS011;63058;49.424;8.420;2022-10-19T15:18:54;1.52;;;1.23;;
20855;SDS011;63058;49.424;8.420;2022-10-19T15:21:20;1.30;;;1.20;;
20855;SDS011;63058;49.424;8.420;2022-10-19T15:23:46;1.10;;;1.00;;
20855;SDS011;63058;49.424;8.420;2022-10-19T15:26:26;2.00;;;1.30;;
20855;SDS011;63058;49.424;8.420;2022-10-19T15:28:54;1.10;;;1.00;;
20855;SDS011;63058;49.424;8.420;2022-10-19T15:31:32;1.40;;;1.30;;
20855;SDS011;63058;49.424;8.420;2022-10-19T15:33:59;2.90;;;1.30;;
20855;SDS011;63058;49.424;8.420;2022-10-19T15:36:26;1.50;;;1.40;;
20855;SDS011;63058;49.424;8.420;2022-10-19T15:41:40;2.83;;;1.60;;
20855;SDS011;63058;49.424;8.420;2022-10-19T15:44:06;2.08;;;1.45;;
20855;SDS011;63058;49.424;8.420;2022-10-19T15:52:15;2.97;;;2.00;;
20855;SDS011;63058;49.424;8.420;2022-10-19T15:54:41;2.15;;;1.90;;
20855;SDS011;63058;49.424;8.420;2022-10-19T16:02:35;3.92;;;2.40;;
20855;SDS011;63058;49.424;8.420;2022-10-19T16:05:00;3.35;;;2.28;;
20855;SDS011;63058;49.424;8.420;2022-10-19T16:07:27;2.45;;;2.15;;
20855;SDS011;63058;49.424;8.420;2022-10-19T16:09:54;3.20;;;2.10;;
20855;SDS011;63058;49.424;8.420;2022-10-19T16:12:21;2.95;;;2.47;;
20855;SDS011;63058;49.424;8.420;2022-10-19T16:14:50;2.72;;;2.38;;
20855;SDS011;63058;49.424;8.420;2022-10-19T16:17:16;2.40;;;2.20;;
20855;SDS011;63058;49.424;8.420;2022-10-19T16:19:42;5.95;;;3.10;;
20855;SDS011;63058;49.424;8.420;2022-10-19T16:22:08;3.70;;;3.00;;
20855;SDS011;63058;49.424;8.420;2022-10-19T16:24:33;5.28;;;2.63;;
20855;SDS011;63058;49.424;8.420;2022-10-19T16:26:59;3.33;;;2.33;;
20855;SDS011;63058;49.424;8.420;2022-10-19T16:29:27;4.45;;;2.70;;
20855;SDS011;63058;49.424;8.420;2022-10-19T16:31:59;3.22;;;2.80;;
20855;SDS011;63058;49.424;8.420;2022-10-19T16:34:25;3.47;;;2.67;;
20855;SDS011;63058;49.424;8.420;2022-10-19T16:36:51;3.72;;;2.72;;
20855;SDS011;63058;49.424;8.420;2022-10-19T16:39:17;4.20;;;3.15;;
20855;SDS011;63058;49.424;8.420;2022-10-19T16:41:42;5.07;;;3.15;;
20855;SDS011;63058;49.424;8.420;2022-10-19T16:44:09;6.65;;;3.22;;
20855;SDS011;63058;49.424;8.420;2022-10-19T16:46:36;3.33;;;2.65;;
20855;SDS011;63058;49.424;8.420;2022-10-19T16:49:02;3.13;;;2.80;;
20855;SDS011;63058;49.424;8.420;2022-10-19T16:52:00;3.42;;;2.78;;
20855;SDS011;63058;49.424;8.420;2022-10-19T16:54:19;3.80;;;2.72;;
20855;SDS011;63058;49.424;8.420;2022-10-19T16:56:45;3.92;;;2.90;;
20855;SDS011;63058;49.424;8.420;2022-10-19T16:59:13;3.03;;;2.45;;
20855;SDS011;63058;49.424;8.420;2022-10-19T17:01:40;3.58;;;2.60;;
20855;SDS011;63058;49.424;8.420;2022-10-19T17:04:08;3.40;;;2.65;;
20855;SDS011;63058;49.424;8.420;2022-10-19T17:06:34;3.90;;;3.22;;
20855;SDS011;63058;49.424;8.420;2022-10-19T17:09:00;3.85;;;2.83;;
20855;SDS011;63058;49.424;8.420;2022-10-19T17:11:27;4.63;;;3.33;;
20855;SDS011;63058;49.424;8.420;2022-10-19T17:14:01;2.92;;;2.60;;
20855;SDS011;63058;49.424;8.420;2022-10-19T17:16:31;5.65;;;2.90;;
20855;SDS011;63058;49.424;8.420;2022-10-19T17:18:58;3.92;;;2.67;;
20855;SDS011;63058;49.424;8.420;2022-10-19T17:21:29;3.55;;;2.85;;
20855;SDS011;63058;49.424;8.420;2022-10-19T17:23:59;3.55;;;3.05;;
20855;SDS011;63058;49.424;8.420;2022-10-19T17:26:27;5.30;;;3.10;;
20855;SDS011;63058;49.424;8.420;2022-10-19T17:28:58;4.32;;;3.20;;
20855;SDS011;63058;49.424;8.420;2022-10-19T17:31:25;6.60;;;3.03;;
20855;SDS011;63058;49.424;8.420;2022-10-19T17:33:52;3.42;;;3.03;;
20855;SDS011;63058;49.424;8.420;2022-10-19T17:36:22;3.50;;;3.20;;
20855;SDS011;63058;49.424;8.420;2022-10-19T17:38:52;6.28;;;3.15;;
20855;SDS011;63058;49.424;8.420;2022-10-19T17:41:19;7.93;;;3.63;;
20855;SDS011;63058;49.424;8.420;2022-10-19T17:43:46;5.57;;;3.85;;
20855;SDS011;63058;49.424;8.420;2022-10-19T17:46:19;5.75;;;3.65;;